createdAt,value
2022-10-22T00:02:05.878Z,23.93
2022-10-22T00:04:34.585Z,23.93
2022-10-22T00:07:02.147Z,23.93
2022-10-22T00:09:28.615Z,23.93
2022-10-22T00:11:55.184Z,23.92
2022-10-22T00:14:21.643Z,23.92
2022-10-22T00:16:48.099Z,23.92
2022-10-22T00:19:15.424Z,23.92
2022-10-22T00:21:42.055Z,23.92
2022-10-22T00:24:08.615Z,23.92
2022-10-22T00:26:35.161Z,23.90
2022-10-22T00:29:01.611Z,23.90
2022-10-22T00:31:28.256Z,23.90
2022-10-22T00:33:54.719Z,23.90
2022-10-22T00:36:21.190Z,23.89
2022-10-22T00:38:47.665Z,23.88
2022-10-22T00:41:14.628Z,23.89
2022-10-22T00:43:56.007Z,23.88
2022-10-22T00:46:22.470Z,23.89
2022-10-22T00:48:49.931Z,23.88
2022-10-22T00:51:16.719Z,23.88
2022-10-22T00:53:49.044Z,23.87
2022-10-22T00:56:15.745Z,23.88
2022-10-22T00:58:47.381Z,23.87
2022-10-22T01:01:18.537Z,23.86
2022-10-22T01:03:45.141Z,23.87
2022-10-22T01:06:19.218Z,23.85
2022-10-22T01:09:04.357Z,23.87
2022-10-22T01:11:55.684Z,23.86
2022-10-22T01:14:59.894Z,23.85
2022-10-22T01:17:50.768Z,23.84
2022-10-22T01:20:22.956Z,23.83
2022-10-22T01:35:17.697Z,23.83
2022-10-22T01:37:52.061Z,23.82
2022-10-22T01:40:19.999Z,23.82
2022-10-22T01:43:00.859Z,23.82
2022-10-22T01:45:30.411Z,23.81
2022-10-22T01:48:08.781Z,23.83
2022-10-22T01:54:10.589Z,23.81
2022-10-22T01:56:45.983Z,23.81
2022-10-22T01:59:38.852Z,23.81
2022-10-22T02:02:11.502Z,23.79
2022-10-22T02:05:09.495Z,23.80
2022-10-22T02:07:45.836Z,23.80
2022-10-22T02:10:14.039Z,23.80
2022-10-22T02:12:43.475Z,23.79
2022-10-22T02:15:12.365Z,23.79
2022-10-22T02:17:39.830Z,23.78
2022-10-22T02:20:12.676Z,23.78
2022-10-22T02:22:40.383Z,23.77
2022-10-22T02:25:09.251Z,23.77
2022-10-22T02:27:51.819Z,23.78
2022-10-22T02:30:22.366Z,23.78
2022-10-22T02:33:01.860Z,23.77
2022-10-22T02:35:29.717Z,23.77
2022-10-22T02:37:58.194Z,23.75
2022-10-22T02:40:25.072Z,23.75
2022-10-22T02:42:52.008Z,23.75
2022-10-22T02:45:19.457Z,23.74
2022-10-22T02:47:46.374Z,23.74
2022-10-22T02:50:13.556Z,23.74
2022-10-22T02:52:40.384Z,23.74
2022-10-22T02:55:07.940Z,23.73
2022-10-22T02:57:34.449Z,23.74
2022-10-22T03:00:01.073Z,23.72
2022-10-22T03:02:27.582Z,23.73
2022-10-22T03:04:54.034Z,23.71
2022-10-22T03:07:20.583Z,23.71
2022-10-22T03:09:47.045Z,23.72
2022-10-22T03:12:13.828Z,23.71
2022-10-22T03:14:40.310Z,23.70
2022-10-22T03:17:06.770Z,23.71
2022-10-22T03:19:33.262Z,23.70
2022-10-22T03:22:02.860Z,23.71
2022-10-22T03:24:34.322Z,23.70
2022-10-22T03:27:00.787Z,23.69
2022-10-22T03:29:27.838Z,23.70
2022-10-22T03:31:54.896Z,23.70
2022-10-22T03:34:21.594Z,23.70
2022-10-22T03:36:49.674Z,23.69
2022-10-22T03:39:19.304Z,23.69
2022-10-22T03:41:46.742Z,23.68
2022-10-22T03:44:13.685Z,23.69
2022-10-22T03:46:40.164Z,23.67
2022-10-22T03:49:06.622Z,23.67
2022-10-22T03:51:33.332Z,23.67
2022-10-22T03:53:59.920Z,23.67
2022-10-22T03:56:26.470Z,23.68
2022-10-22T03:58:56.365Z,23.66
2022-10-22T04:01:23.431Z,23.67
2022-10-22T04:03:49.928Z,23.66
2022-10-22T04:06:16.454Z,23.65
2022-10-22T04:08:44.387Z,23.66
2022-10-22T04:11:12.194Z,23.66
2022-10-22T04:13:39.394Z,23.66
2022-10-22T04:16:15.000Z,23.64
2022-10-22T04:18:42.948Z,23.63
2022-10-22T04:21:11.072Z,23.63
2022-10-22T04:23:38.367Z,23.63
2022-10-22T04:26:07.614Z,23.63
2022-10-22T04:28:35.464Z,23.63
2022-10-22T04:31:10.983Z,23.62
2022-10-22T04:33:37.935Z,23.62
2022-10-22T04:36:16.292Z,23.61
2022-10-22T04:38:44.228Z,23.61
2022-10-22T04:41:19.719Z,23.59
2022-10-22T04:43:47.418Z,23.59
2022-10-22T04:46:15.870Z,23.58
2022-10-22T04:48:43.498Z,23.57
2022-10-22T04:51:13.610Z,23.58
2022-10-22T04:53:43.430Z,23.57
2022-10-22T04:56:21.929Z,23.57
2022-10-22T04:58:50.556Z,23.56
2022-10-22T05:01:23.474Z,23.56
2022-10-22T05:03:51.853Z,23.57
2022-10-22T05:06:20.886Z,23.56
2022-10-22T05:08:48.356Z,23.57
2022-10-22T05:11:18.776Z,23.56
2022-10-22T05:13:45.855Z,23.55
2022-10-22T05:16:13.546Z,23.55
2022-10-22T05:18:42.183Z,23.55
2022-10-22T05:21:11.015Z,23.53
2022-10-22T05:23:37.556Z,23.54
2022-10-22T05:26:06.152Z,23.54
2022-10-22T05:28:34.012Z,23.54
2022-10-22T05:31:01.433Z,23.52
2022-10-22T05:33:29.600Z,23.51
2022-10-22T05:35:56.768Z,23.51
2022-10-22T05:38:23.336Z,23.51
2022-10-22T05:41:03.293Z,23.51
2022-10-22T05:43:30.587Z,23.51
2022-10-22T05:46:03.015Z,23.52
2022-10-22T05:48:29.742Z,23.51
2022-10-22T05:50:56.444Z,23.50
2022-10-22T05:53:22.891Z,23.50
2022-10-22T05:55:49.479Z,23.48
2022-10-22T05:58:15.946Z,23.49
2022-10-22T06:00:42.471Z,23.48
2022-10-22T06:03:08.910Z,23.48
2022-10-22T06:05:36.747Z,23.47
2022-10-22T06:08:04.331Z,23.47
2022-10-22T06:10:31.385Z,23.48
2022-10-22T06:12:57.940Z,23.47
2022-10-22T06:15:24.502Z,23.46
2022-10-22T06:17:50.973Z,23.46
2022-10-22T06:20:17.603Z,23.47
2022-10-22T06:22:44.301Z,23.46
2022-10-22T06:25:11.010Z,23.46
2022-10-22T06:27:37.449Z,23.46
2022-10-22T06:30:04.362Z,23.45
2022-10-22T06:32:30.867Z,23.44
2022-10-22T06:34:57.392Z,23.45
2022-10-22T06:37:23.935Z,23.45
2022-10-22T06:39:50.399Z,23.45
2022-10-22T06:42:16.862Z,23.44
2022-10-22T06:44:43.362Z,23.44
2022-10-22T06:47:09.818Z,23.43
2022-10-22T06:49:36.520Z,23.43
2022-10-22T06:52:03.012Z,23.44
2022-10-22T06:54:29.474Z,23.44
2022-10-22T06:56:55.920Z,23.42
2022-10-22T06:59:22.402Z,23.43
2022-10-22T07:01:49.101Z,23.42
2022-10-22T07:04:15.758Z,23.41
2022-10-22T07:06:42.560Z,23.43
2022-10-22T07:09:09.127Z,23.42
2022-10-22T07:11:44.079Z,23.42
2022-10-22T07:14:11.111Z,23.41
2022-10-22T07:16:37.921Z,23.42
2022-10-22T07:19:05.421Z,23.42
2022-10-22T07:21:32.524Z,23.40
2022-10-22T07:23:59.709Z,23.41
2022-10-22T07:26:30.531Z,23.40
2022-10-22T07:28:57.299Z,23.40
2022-10-22T07:31:23.807Z,23.40
2022-10-22T07:33:50.500Z,23.40
2022-10-22T07:36:17.933Z,23.40
2022-10-22T07:38:49.624Z,23.40
2022-10-22T07:41:17.595Z,23.41
2022-10-22T07:43:44.873Z,23.39
2022-10-22T07:46:11.479Z,23.38
2022-10-22T07:48:39.045Z,23.38
2022-10-22T07:51:05.772Z,23.38
2022-10-22T07:53:32.954Z,23.38
2022-10-22T07:55:59.516Z,23.37
2022-10-22T07:58:26.239Z,23.37
2022-10-22T08:00:56.556Z,23.38
2022-10-22T08:03:23.087Z,23.36
2022-10-22T08:05:50.104Z,23.37
2022-10-22T08:08:16.778Z,23.38
2022-10-22T08:10:44.263Z,23.37
2022-10-22T08:13:11.371Z,23.37
2022-10-22T08:15:38.449Z,23.37
2022-10-22T08:18:05.202Z,23.37
2022-10-22T08:20:32.095Z,23.37
2022-10-22T08:22:59.404Z,23.37
2022-10-22T08:25:25.999Z,23.37
2022-10-22T08:27:52.468Z,23.37
2022-10-22T08:30:19.090Z,23.37
2022-10-22T08:32:45.821Z,23.37
2022-10-22T08:35:14.159Z,23.37
2022-10-22T08:37:43.563Z,23.35
2022-10-22T08:40:21.408Z,23.36
2022-10-22T08:43:06.827Z,23.37
2022-10-22T08:45:41.503Z,23.36
2022-10-22T08:48:41.376Z,23.37
2022-10-22T08:51:12.775Z,23.37
2022-10-22T08:54:06.923Z,23.38
2022-10-22T08:56:36.581Z,23.36
2022-10-22T08:59:11.887Z,23.36
2022-10-22T09:01:43.068Z,23.37
2022-10-22T09:04:25.759Z,23.36
2022-10-22T09:06:55.257Z,23.37
2022-10-22T09:09:22.088Z,23.37
2022-10-22T09:11:51.800Z,23.37
2022-10-22T09:14:22.028Z,23.37
2022-10-22T09:16:57.315Z,23.37
2022-10-22T09:19:50.350Z,23.39
2022-10-22T09:22:46.449Z,23.37
2022-10-22T09:25:26.068Z,23.37
2022-10-22T09:27:54.452Z,23.38
2022-10-22T09:30:24.323Z,23.40
2022-10-22T09:33:16.043Z,23.38
2022-10-22T09:35:47.163Z,23.38
2022-10-22T09:38:15.475Z,23.39
2022-10-22T09:40:45.437Z,23.38
2022-10-22T09:43:13.883Z,23.38
2022-10-22T09:45:41.970Z,23.39
2022-10-22T09:48:14.490Z,23.37
2022-10-22T09:50:49.674Z,23.38
2022-10-22T09:53:27.076Z,23.36
2022-10-22T09:55:59.601Z,23.37
2022-10-22T09:58:26.781Z,23.38
2022-10-22T10:00:56.452Z,23.41
2022-10-22T10:03:28.952Z,23.45
2022-10-22T10:06:01.536Z,23.46
2022-10-22T10:08:31.782Z,23.47
2022-10-22T10:11:16.665Z,23.51
2022-10-22T10:13:54.102Z,23.54
2022-10-22T10:16:52.940Z,23.55
2022-10-22T10:19:25.917Z,23.58
2022-10-22T10:25:32.731Z,23.60
2022-10-22T10:31:32.174Z,23.65
2022-10-22T10:34:17.135Z,23.66
2022-10-22T10:37:02.980Z,23.68
2022-10-22T10:39:56.005Z,23.69
2022-10-22T10:42:59.690Z,23.71
2022-10-22T10:45:55.512Z,23.72
2022-10-22T10:48:48.710Z,23.72
2022-10-22T10:51:29.975Z,23.73
2022-10-22T10:54:11.509Z,23.73
2022-10-22T10:56:44.024Z,23.73
2022-10-22T11:03:12.381Z,23.73
2022-10-22T11:05:56.412Z,23.73
2022-10-22T11:08:30.674Z,23.72
2022-10-22T11:13:54.946Z,23.73
2022-10-22T11:16:33.888Z,23.73
2022-10-22T11:19:23.189Z,23.72
2022-10-22T11:22:05.693Z,23.73
2022-10-22T11:24:52.023Z,23.73
2022-10-22T11:27:29.123Z,23.74
2022-10-22T11:30:05.394Z,23.74
2022-10-22T11:32:33.358Z,23.75
2022-10-22T11:35:04.478Z,23.76
2022-10-22T11:37:35.022Z,23.75
2022-10-22T11:40:07.953Z,23.76
2022-10-22T11:42:43.245Z,23.75
2022-10-22T11:45:15.760Z,23.74
2022-10-22T11:47:57.733Z,23.75
2022-10-22T11:50:46.295Z,23.78
2022-10-22T11:53:12.776Z,23.77
2022-10-22T11:56:01.905Z,23.78
2022-10-22T11:58:28.551Z,23.78
2022-10-22T12:01:02.179Z,23.79
2022-10-22T12:03:28.690Z,23.79
2022-10-22T12:06:13.223Z,23.80
2022-10-22T12:08:44.002Z,23.82
2022-10-22T12:11:10.512Z,23.81
2022-10-22T12:13:58.562Z,23.83
2022-10-22T12:16:43.900Z,23.83
2022-10-22T12:19:17.580Z,23.85
2022-10-22T12:21:49.038Z,23.86
2022-10-22T12:24:19.222Z,23.85
2022-10-22T12:26:46.984Z,23.87
2022-10-22T12:29:16.206Z,23.88
2022-10-22T12:31:45.524Z,23.89
2022-10-22T12:34:21.876Z,23.92
2022-10-22T12:36:50.528Z,23.91
2022-10-22T12:39:20.505Z,23.92
2022-10-22T12:41:47.666Z,23.95
2022-10-22T12:44:16.875Z,23.96
2022-10-22T12:46:46.412Z,23.95
2022-10-22T12:49:21.574Z,23.97
2022-10-22T12:51:49.433Z,23.99
2022-10-22T12:54:27.556Z,23.99
2022-10-22T12:56:56.263Z,24.01
2022-10-22T13:02:29.820Z,24.04
2022-10-22T13:05:17.437Z,24.05
2022-10-22T13:07:50.861Z,24.06
2022-10-22T13:10:32.300Z,24.08
2022-10-22T13:12:59.104Z,24.09
2022-10-22T13:15:28.702Z,24.10
2022-10-22T13:18:16.945Z,24.10
2022-10-22T13:21:03.016Z,24.12
2022-10-22T13:23:31.842Z,24.14
2022-10-22T13:26:03.247Z,24.14
2022-10-22T13:28:32.049Z,24.15
2022-10-22T13:31:01.433Z,24.16
2022-10-22T13:33:38.414Z,24.16
2022-10-22T13:36:05.761Z,24.17
2022-10-22T13:38:32.768Z,24.20
2022-10-22T13:40:59.428Z,24.21
2022-10-22T13:43:26.332Z,24.20
2022-10-22T13:45:55.622Z,24.23
2022-10-22T13:48:24.308Z,24.23
2022-10-22T13:50:52.287Z,24.25
2022-10-22T13:53:22.234Z,24.25
2022-10-22T13:55:50.233Z,24.28
2022-10-22T13:58:19.797Z,24.28
2022-10-22T14:00:50.939Z,24.28
2022-10-22T14:03:21.579Z,24.28
2022-10-22T14:05:49.229Z,24.30
2022-10-22T14:08:19.117Z,24.31
2022-10-22T14:10:45.655Z,24.31
2022-10-22T14:13:13.865Z,24.31
2022-10-22T14:15:41.464Z,24.31
2022-10-22T14:18:12.816Z,24.32
2022-10-22T14:20:42.315Z,24.33
2022-10-22T14:23:18.832Z,24.35
2022-10-22T14:25:46.163Z,24.36
2022-10-22T14:28:13.374Z,24.37
2022-10-22T14:30:40.696Z,24.37
2022-10-22T14:33:21.187Z,24.39
2022-10-22T14:35:48.035Z,24.39
2022-10-22T14:38:14.969Z,24.40
2022-10-22T14:40:42.945Z,24.42
2022-10-22T14:43:31.165Z,24.44
2022-10-22T14:45:58.443Z,24.45
2022-10-22T14:48:24.949Z,24.44
2022-10-22T14:50:51.697Z,24.45
2022-10-22T14:53:18.385Z,24.46
2022-10-22T14:55:47.130Z,24.48
2022-10-22T14:58:14.091Z,24.49
2022-10-22T15:00:42.265Z,24.50
2022-10-22T15:03:09.158Z,24.51
2022-10-22T15:05:36.420Z,24.51
2022-10-22T15:08:02.943Z,24.51
2022-10-22T15:10:29.415Z,24.53
2022-10-22T15:12:55.883Z,24.54
2022-10-22T15:15:23.236Z,24.55
2022-10-22T15:17:51.157Z,24.53
2022-10-22T15:20:17.710Z,24.53
2022-10-22T15:22:45.355Z,24.54
2022-10-22T15:25:13.067Z,24.55
2022-10-22T15:27:40.223Z,24.56
2022-10-22T15:30:08.425Z,24.55
2022-10-22T15:32:34.933Z,24.56
2022-10-22T15:35:01.656Z,24.56
2022-10-22T15:37:28.275Z,24.54
2022-10-22T15:39:54.825Z,24.57
2022-10-22T15:42:21.453Z,24.57
2022-10-22T15:44:47.908Z,24.57
2022-10-22T15:47:14.519Z,24.57
2022-10-22T15:49:41.857Z,24.56
2022-10-22T15:52:09.363Z,24.56
2022-10-22T15:54:36.303Z,24.57
2022-10-22T15:57:05.777Z,24.56
2022-10-22T15:59:32.295Z,24.57
2022-10-22T16:01:58.757Z,24.56
2022-10-22T16:04:25.254Z,24.57
2022-10-22T16:06:53.552Z,24.58
2022-10-22T16:09:24.988Z,24.58
2022-10-22T16:14:21.752Z,24.58
2022-10-22T16:16:50.989Z,24.58
2022-10-22T16:19:19.034Z,24.58
2022-10-22T16:21:45.598Z,24.59
2022-10-22T16:24:12.880Z,24.57
2022-10-22T16:26:39.361Z,24.60
2022-10-22T16:29:08.303Z,24.59
2022-10-22T16:31:34.858Z,24.60
2022-10-22T16:34:01.306Z,24.59
2022-10-22T16:36:27.751Z,24.58
2022-10-22T16:38:54.319Z,24.58
2022-10-22T16:41:22.967Z,24.58
2022-10-22T16:43:51.599Z,24.59
2022-10-22T16:46:21.044Z,24.60
2022-10-22T16:48:52.981Z,24.60
2022-10-22T16:51:22.738Z,24.59
2022-10-22T16:53:51.667Z,24.60
2022-10-22T16:56:18.980Z,24.60
2022-10-22T16:58:48.430Z,24.60
2022-10-22T17:01:17.962Z,24.59
2022-10-22T17:03:45.437Z,24.59
2022-10-22T17:06:12.462Z,24.59
2022-10-22T17:08:40.601Z,24.58
2022-10-22T17:11:18.830Z,24.58
2022-10-22T17:13:47.167Z,24.56
2022-10-22T17:16:15.775Z,24.55
2022-10-22T17:18:43.333Z,24.58
2022-10-22T17:21:10.865Z,24.55
2022-10-22T17:23:37.428Z,24.58
2022-10-22T17:26:06.634Z,24.55
2022-10-22T17:28:36.208Z,24.54
2022-10-22T17:31:08.555Z,24.53
2022-10-22T17:33:36.031Z,24.54
2022-10-22T17:36:08.983Z,24.54
2022-10-22T17:38:35.592Z,24.54
2022-10-22T17:41:04.289Z,24.53
2022-10-22T17:43:35.211Z,24.51
2022-10-22T17:46:13.360Z,24.53
2022-10-22T17:48:40.083Z,24.51
2022-10-22T17:51:07.815Z,24.51
2022-10-22T17:53:34.570Z,24.51
2022-10-22T17:56:06.939Z,24.51
2022-10-22T17:58:33.478Z,24.51
2022-10-22T18:01:00.031Z,24.50
2022-10-22T18:03:27.928Z,24.51
2022-10-22T18:05:54.968Z,24.51
2022-10-22T18:08:24.048Z,24.49
2022-10-22T18:10:50.682Z,24.47
2022-10-22T18:13:17.237Z,24.46
2022-10-22T18:15:43.685Z,24.46
2022-10-22T18:18:10.453Z,24.47
2022-10-22T18:20:36.907Z,24.48
2022-10-22T18:23:03.706Z,24.48
2022-10-22T18:25:31.755Z,24.49
2022-10-22T18:27:58.311Z,24.46
2022-10-22T18:30:24.889Z,24.48
2022-10-22T18:32:51.792Z,24.46
2022-10-22T18:35:18.330Z,24.47
2022-10-22T18:37:45.079Z,24.46
2022-10-22T18:40:14.644Z,24.47
2022-10-22T18:42:41.839Z,24.46
2022-10-22T18:45:08.971Z,24.45
2022-10-22T18:47:39.845Z,24.45
2022-10-22T18:50:06.760Z,24.45
2022-10-22T18:52:33.541Z,24.43
2022-10-22T18:55:00.134Z,24.43
2022-10-22T18:57:26.756Z,24.43
2022-10-22T18:59:55.801Z,24.43
2022-10-22T19:02:25.151Z,24.43
2022-10-22T19:04:51.614Z,24.43
2022-10-22T19:07:18.191Z,24.41
2022-10-22T19:09:44.711Z,24.41
2022-10-22T19:12:14.945Z,24.41
2022-10-22T19:14:42.784Z,24.40
2022-10-22T19:17:09.423Z,24.40
2022-10-22T19:19:35.962Z,24.41
2022-10-22T19:22:02.515Z,24.39
2022-10-22T19:24:29.281Z,24.39
2022-10-22T19:26:55.848Z,24.37
2022-10-22T19:29:22.676Z,24.37
2022-10-22T19:31:51.017Z,24.37
2022-10-22T19:34:18.247Z,24.36
2022-10-22T19:36:44.819Z,24.36
2022-10-22T19:39:15.322Z,24.36
2022-10-22T19:41:42.078Z,24.36
2022-10-22T19:44:09.737Z,24.36
2022-10-22T19:46:36.398Z,24.35
2022-10-22T19:49:04.305Z,24.34
2022-10-22T19:51:33.828Z,24.34
2022-10-22T19:54:04.167Z,24.34
2022-10-22T19:56:32.223Z,24.32
2022-10-22T19:58:59.432Z,24.31
2022-10-22T20:01:27.161Z,24.32
2022-10-22T20:03:54.387Z,24.32
2022-10-22T20:06:22.041Z,24.31
2022-10-22T20:08:51.020Z,24.30
2022-10-22T20:11:23.311Z,24.30
2022-10-22T20:13:52.293Z,24.28
2022-10-22T20:16:23.004Z,24.32
2022-10-22T20:18:50.009Z,24.35
2022-10-22T20:21:19.246Z,24.36
2022-10-22T20:23:46.705Z,24.36
2022-10-22T20:26:13.463Z,24.36
2022-10-22T20:28:40.114Z,24.37
2022-10-22T20:31:12.553Z,24.36
2022-10-22T20:33:39.372Z,24.37
2022-10-22T20:36:09.171Z,24.36
2022-10-22T20:41:06.960Z,24.38
2022-10-22T20:43:33.942Z,24.37
2022-10-22T20:46:01.121Z,24.37
2022-10-22T20:48:31.263Z,24.37
2022-10-22T20:50:59.132Z,24.37
2022-10-22T20:53:25.895Z,24.36
2022-10-22T20:55:56.747Z,24.37
2022-10-22T20:58:25.934Z,24.37
2022-10-22T21:00:54.684Z,24.36
2022-10-22T21:03:21.251Z,24.36
2022-10-22T21:05:47.751Z,24.36
2022-10-22T21:08:17.393Z,24.36
2022-10-22T21:10:48.889Z,24.35
2022-10-22T21:13:16.526Z,24.37
2022-10-22T21:15:43.040Z,24.36
2022-10-22T21:18:09.538Z,24.35
2022-10-22T21:20:36.366Z,24.35
2022-10-22T21:23:02.917Z,24.36
2022-10-22T21:25:29.361Z,24.34
2022-10-22T21:27:55.987Z,24.35
2022-10-22T21:30:22.559Z,24.34
2022-10-22T21:32:49.215Z,24.34
2022-10-22T21:35:15.856Z,24.34
2022-10-22T21:37:42.534Z,24.33
2022-10-22T21:40:09.759Z,24.33
2022-10-22T21:42:36.251Z,24.33
2022-10-22T21:45:02.807Z,24.34
2022-10-22T21:47:29.276Z,24.34
2022-10-22T21:49:55.800Z,24.33
2022-10-22T21:52:22.280Z,24.33
2022-10-22T21:54:48.801Z,24.32
2022-10-22T21:57:15.321Z,24.32
2022-10-22T21:59:41.771Z,24.33
2022-10-22T22:02:08.438Z,24.33
2022-10-22T22:04:35.021Z,24.32
2022-10-22T22:07:01.666Z,24.32
2022-10-22T22:09:28.218Z,24.32
2022-10-22T22:11:54.687Z,24.32
2022-10-22T22:14:21.145Z,24.32
2022-10-22T22:16:47.606Z,24.31
2022-10-22T22:19:14.193Z,24.30
2022-10-22T22:21:41.896Z,24.31
2022-10-22T22:24:11.469Z,24.31
2022-10-22T22:26:38.165Z,24.30
2022-10-22T22:29:05.664Z,24.30
2022-10-22T22:31:34.287Z,24.31
2022-10-22T22:34:06.236Z,24.30
2022-10-22T22:36:35.945Z,24.30
2022-10-22T22:39:04.064Z,24.28
2022-10-22T22:41:30.716Z,24.29
2022-10-22T22:43:57.188Z,24.30
2022-10-22T22:46:23.641Z,24.29
2022-10-22T22:48:50.329Z,24.28
2022-10-22T22:51:17.536Z,24.29
2022-10-22T22:53:44.016Z,24.28
2022-10-22T22:56:18.201Z,24.28
2022-10-22T22:58:45.285Z,24.28
2022-10-22T23:01:18.461Z,24.27
2022-10-22T23:03:47.611Z,24.27
2022-10-22T23:06:15.425Z,24.27
2022-10-22T23:08:42.513Z,24.27
2022-10-22T23:11:13.551Z,24.27
2022-10-22T23:13:41.414Z,24.26
2022-10-22T23:16:10.258Z,24.26
2022-10-22T23:18:36.770Z,24.25
2022-10-22T23:21:05.309Z,24.26
2022-10-22T23:23:33.225Z,24.26
2022-10-22T23:26:00.532Z,24.26
2022-10-22T23:28:27.074Z,24.24
2022-10-22T23:30:53.588Z,24.25
2022-10-22T23:33:20.552Z,24.25
2022-10-22T23:35:47.072Z,24.25
2022-10-22T23:38:13.767Z,24.23
2022-10-22T23:40:40.386Z,24.23
2022-10-22T23:43:06.852Z,24.23
2022-10-22T23:45:34.399Z,24.23
2022-10-22T23:48:00.823Z,24.24
2022-10-22T23:50:27.329Z,24.22
2022-10-22T23:52:53.785Z,24.22
2022-10-22T23:55:20.401Z,24.22
2022-10-22T23:57:47.059Z,24.21
